KEYW/EYW METAR and TAF weather

Enter ICAO airport designator
Station Type Date Time Source
KEYW METAR 2020/12/06 00:53 UTC NOAA

KEYW 060053Z 08003KT 10SM FEW060 23/22 A3003 RMK AO2 SLP168 T02330217


Station Type Date Time Source
KEYW Decoded METAR 2020/12/06 00:53 UTC NOAA

KEY WEST INTERNATIONAL AIRPORT , FL, United States (KEYW) 24-33N 81-46W 5M
Dec 05, 2020 - 07:53 PM EST / 2020.12.06 0053 UTC
Wind: from the E (080 degrees) at 3 MPH (3 KT):0
Visibility: 10 mile(s):0
Sky conditions: mostly clear
Temperature: 73.9 F (23.3 C)
Dew Point: 71.1 F (21.7 C)
Relative Humidity: 90%
Pressure (altimeter): 30.03 in. Hg (1016 hPa)
ob: KEYW 060053Z 08003KT 10SM FEW060 23/22 A3003 RMK AO2 SLP168 T02330217
cycle: 1

Station Type Date Time Source
KEYW TAF 2020/12/05 18:45 UTC NOAA

TAF KEYW 051743Z 0518/0618 VRB03KT P6SM SCT018 SCT100
FM060600 01004KT P6SM BKN008
FM061000 04006KT P6SM SCT010
FM061500 09007KT P6SM SCT018 BKN100

Example: see airport list